首页
METAR-TAF:

METAR-TAF

机场 :

Khon Kaen, 泰国

纬度: 16-26N, 经度: 102-50E, 海拔: 165米

当前天气观测

该预报发布于15分钟前的17:00 UTC
风速5节,风向东北
温度 20°C
湿度 78%
气压 1018 hPa
能見度: 9000

METAR: VTUK 121700Z 04005KT 9000 NSC 20/16 Q1018 NOSIG

时间: 00:15 (17:15 UTC)

预报

该预报发布于6小时和15分钟前的11:00 UTC
预报有效从12日的 12点(UTC)到 13日的 12点(UTC)
风速8节,风向东北
能见度10公里或以上
少量云层高于3000英尺
散云层高于10000英尺

TAF: VTUK 121100Z 1212/1312 04008KT 9999 FEW030 SCT100

超过4000个机场的气象观测和天气预报(METAR&TAF报告)。

可查询的气象台以黄色和红色小点在地图上表示。

将鼠标移到小点上方,可查看气象台名称。

然后点击查看天气观测和预报。

如需切换地图:点击带黑十字的绿色按钮放大地图;点击带横线的绿色按钮缩小地图;或者点击绿色箭头查看邻近地区的地图。


METAR-TAF: